CYYZ/YYZ METAR and TAF weather

Enter ICAO airport designator
Station Type Date Time Source
CYYZ METAR 2021/07/30 08:00 UTC NOAA

CYYZ 300800Z 35014KT 15SM FEW210 17/14 A2988 RMK CI1 SLP117 DENSITY ALT 1100FT


Station Type Date Time Source
CYYZ Decoded METAR 2021/07/30 08:00 UTC NOAA

Toronto Pearson Int'L. Ont., Canada (CYYZ) 43-40N 079-38W 173M
Jul 30, 2021 - 04:00 AM EDT / 2021.07.30 0800 UTC
Wind: from the N (350 degrees) at 16 MPH (14 KT):0
Visibility: 15 mile(s):0
Sky conditions: mostly clear
Temperature: 62 F (17 C)
Dew Point: 57 F (14 C)
Relative Humidity: 82%
Pressure (altimeter): 29.88 in. Hg (1011 hPa)
ob: CYYZ 300800Z 35014KT 15SM FEW210 17/14 A2988 RMK CI1 SLP117 DENSITY ALT 1100FT
cycle: 8

Station Type Date Time Source
CYYZ TAF 2021/07/30 06:42 UTC NOAA

TAF TAF CYYZ 300538Z 3006/3112 32010KT P6SM SKC
FM300800 33010KT P6SM SCT020
TEMPO 3008/3012 BKN020
FM301200 33010G20KT P6SM BKN030
TEMPO 3012/3014 BKN020
FM301600 35010G20KT P6SM SCT040
FM302000 34015KT P6SM FEW050
FM310200 33007KT P6SM SKC
FM310800 30007KT P6SM SCT100
BECMG 3110/3112 27007KT
RMK NXT FCST BY 300900Z

Example: see airport list